Riceland, Ohio
Current Conditions -  °F | °C
As of 9:56 PM on Monday 22 Dec 2014 (Local Time) from KBJJ Reporting Station
Overcast Overcast  
Wind Chill: 31°   Ceiling: 10000
Heat Index: 38°   Visibility: 9mi
Dew Point: 31°   Wind: 9mph
Humidity: 76%   Direction: 120°ESE
Pressure: 29.88"   Gusts: NA
Location:  40.8369°N, 81.7632°W
Report Text: KBJJ 230256Z AUTO 12008KT 9SM OVC100 03/M01 A2988 RMK AO2 SLP129 T00331006 58011 TSNO
Loading
Personal Weather Stations






























Interactive Weather Map New forecast layout! Learn more

10-Day Weather Forecast

Advertisements
Track Severe Weather on mobile